createdAt,value
2022-12-25T00:02:00.727Z,5.49
2022-12-25T00:04:27.699Z,5.50
2022-12-25T00:06:55.870Z,5.44
2022-12-25T00:09:22.847Z,5.45
2022-12-25T00:11:49.668Z,5.45
2022-12-25T00:14:16.814Z,5.46
2022-12-25T00:16:43.771Z,5.44
2022-12-25T00:19:11.017Z,5.46
2022-12-25T00:21:38.231Z,5.42
2022-12-25T00:24:05.192Z,5.46
2022-12-25T00:26:32.328Z,5.47
2022-12-25T00:29:00.115Z,5.44
2022-12-25T00:31:27.278Z,5.45
2022-12-25T00:33:54.308Z,5.52
2022-12-25T00:36:22.340Z,5.52
2022-12-25T00:38:49.573Z,5.44
2022-12-25T00:41:17.873Z,5.27
2022-12-25T00:43:44.839Z,5.18
2022-12-25T00:46:12.721Z,5.08
2022-12-25T00:48:40.314Z,5.09
2022-12-25T00:51:08.597Z,4.99
2022-12-25T00:53:35.405Z,4.89
2022-12-25T00:56:03.764Z,4.84
2022-12-25T00:58:31.711Z,4.73
2022-12-25T01:00:59.006Z,4.72
2022-12-25T01:03:26.438Z,4.62
2022-12-25T01:06:00.536Z,4.53
2022-12-25T01:08:28.951Z,4.51
2022-12-25T01:11:03.723Z,4.51
2022-12-25T01:13:31.359Z,4.52
2022-12-25T01:15:58.329Z,4.48
2022-12-25T01:18:25.252Z,4.52
2022-12-25T01:20:52.274Z,4.48
2022-12-25T01:23:19.120Z,4.38
2022-12-25T01:25:45.956Z,4.25
2022-12-25T01:28:12.827Z,4.20
2022-12-25T01:30:40.458Z,4.08
2022-12-25T01:33:07.549Z,4.05
2022-12-25T01:35:34.429Z,4.06
2022-12-25T01:38:01.199Z,4.03
2022-12-25T01:40:28.011Z,4.06
2022-12-25T01:42:54.837Z,4.03
2022-12-25T01:45:54.213Z,3.93
2022-12-25T01:48:23.258Z,3.98
2022-12-25T01:50:59.021Z,3.99
2022-12-25T01:53:26.267Z,3.95
2022-12-25T01:55:55.826Z,3.86
2022-12-25T01:58:23.066Z,3.82
2022-12-25T02:00:51.254Z,3.76
2022-12-25T02:03:19.124Z,3.68
2022-12-25T02:05:46.328Z,3.60
2022-12-25T02:08:15.233Z,3.57
2022-12-25T02:10:44.653Z,3.61
2022-12-25T02:13:16.135Z,3.53
2022-12-25T02:16:06.336Z,3.49
2022-12-25T02:18:36.006Z,3.32
2022-12-25T02:21:13.952Z,3.36
2022-12-25T02:23:49.918Z,3.49
2022-12-25T02:26:35.550Z,3.60
2022-12-25T02:29:25.432Z,3.74
2022-12-25T02:32:02.858Z,3.83
2022-12-25T02:34:41.308Z,3.90
2022-12-25T02:37:08.189Z,3.92
2022-12-25T02:39:56.569Z,3.96
2022-12-25T02:42:51.542Z,3.99
2022-12-25T02:45:39.530Z,4.04
2022-12-25T02:48:25.397Z,3.90
2022-12-25T02:51:12.068Z,3.98
2022-12-25T02:53:59.269Z,3.95
2022-12-25T02:56:45.835Z,3.94
2022-12-25T02:59:33.019Z,3.92
2022-12-25T03:02:18.830Z,3.80
2022-12-25T03:05:05.125Z,3.70
2022-12-25T03:07:32.923Z,3.65
2022-12-25T03:10:22.105Z,3.59
2022-12-25T03:12:55.198Z,3.60
2022-12-25T03:15:40.427Z,3.62
2022-12-25T03:18:08.887Z,3.66
2022-12-25T03:20:54.501Z,3.76
2022-12-25T03:23:41.165Z,3.92
2022-12-25T03:26:26.828Z,3.98
2022-12-25T03:28:53.634Z,4.06
2022-12-25T03:31:25.916Z,4.09
2022-12-25T03:34:11.365Z,4.09
2022-12-25T03:36:59.686Z,4.08
2022-12-25T03:39:41.392Z,4.15
2022-12-25T03:42:27.050Z,4.19
2022-12-25T03:45:19.187Z,4.17
2022-12-25T03:48:08.569Z,4.13
2022-12-25T03:50:53.825Z,4.05
2022-12-25T03:53:44.859Z,3.93
2022-12-25T03:56:31.012Z,3.89
2022-12-25T03:59:23.578Z,3.81
2022-12-25T04:02:10.892Z,3.74
2022-12-25T04:04:57.194Z,3.69
2022-12-25T04:07:44.290Z,3.60
2022-12-25T04:10:30.052Z,3.54
2022-12-25T04:13:15.676Z,3.44
2022-12-25T04:16:00.956Z,3.25
2022-12-25T04:18:46.336Z,3.30
2022-12-25T04:21:31.775Z,3.21
2022-12-25T04:24:17.287Z,3.19
2022-12-25T04:27:02.930Z,3.12
2022-12-25T04:29:48.275Z,3.15
2022-12-25T04:32:33.652Z,3.10
2022-12-25T04:35:18.971Z,3.11
2022-12-25T04:37:46.057Z,3.13
2022-12-25T04:40:14.157Z,3.05
2022-12-25T04:42:41.400Z,2.84
2022-12-25T04:45:08.650Z,2.69
2022-12-25T04:47:35.479Z,2.70
2022-12-25T04:50:02.378Z,2.68
2022-12-25T04:52:29.269Z,2.67
2022-12-25T04:54:56.057Z,2.67
2022-12-25T04:57:22.896Z,2.63
2022-12-25T04:59:49.691Z,2.66
2022-12-25T05:02:16.636Z,2.71
2022-12-25T05:04:43.488Z,2.80
2022-12-25T05:07:10.282Z,2.82
2022-12-25T05:09:41.660Z,2.85
2022-12-25T05:12:09.217Z,2.90
2022-12-25T05:14:36.039Z,2.98
2022-12-25T05:17:03.172Z,3.02
2022-12-25T05:19:29.981Z,3.10
2022-12-25T05:21:57.006Z,3.17
2022-12-25T05:24:25.751Z,3.21
2022-12-25T05:26:52.548Z,3.16
2022-12-25T05:29:19.378Z,3.20
2022-12-25T05:31:46.160Z,3.20
2022-12-25T05:34:13.022Z,3.14
2022-12-25T05:36:39.826Z,3.03
2022-12-25T05:39:06.608Z,2.92
2022-12-25T05:41:34.703Z,2.90
2022-12-25T05:44:02.016Z,2.68
2022-12-25T05:46:28.923Z,2.61
2022-12-25T05:48:55.760Z,2.69
2022-12-25T05:51:22.646Z,2.64
2022-12-25T05:53:49.445Z,2.76
2022-12-25T05:56:16.288Z,2.79
2022-12-25T05:58:43.145Z,2.76
2022-12-25T06:01:23.217Z,2.89
2022-12-25T06:03:50.288Z,2.89
2022-12-25T06:06:17.246Z,2.83
2022-12-25T06:08:44.225Z,2.85
2022-12-25T06:11:12.638Z,2.86
2022-12-25T06:13:39.679Z,2.85
2022-12-25T06:16:07.560Z,2.76
2022-12-25T06:18:35.352Z,2.82
2022-12-25T06:21:05.807Z,2.78
2022-12-25T06:23:32.632Z,2.86
2022-12-25T06:26:00.419Z,2.82
2022-12-25T06:28:27.191Z,2.81
2022-12-25T06:30:53.946Z,2.89
2022-12-25T06:33:20.729Z,2.92
2022-12-25T06:35:47.470Z,2.91
2022-12-25T06:38:14.285Z,2.96
2022-12-25T06:40:41.039Z,2.85
2022-12-25T06:43:07.846Z,2.90
2022-12-25T06:45:35.268Z,2.87
2022-12-25T06:48:02.068Z,2.83
2022-12-25T06:50:28.863Z,2.81
2022-12-25T06:52:56.365Z,2.79
2022-12-25T06:55:23.198Z,2.83
2022-12-25T06:57:49.984Z,2.76
2022-12-25T07:00:16.837Z,2.73
2022-12-25T07:02:46.388Z,2.79
2022-12-25T07:05:13.296Z,2.75
2022-12-25T07:07:40.164Z,2.71
2022-12-25T07:10:07.287Z,2.73
2022-12-25T07:12:34.151Z,2.75
2022-12-25T07:15:00.933Z,2.80
2022-12-25T07:17:27.768Z,2.91
2022-12-25T07:19:56.027Z,2.89
2022-12-25T07:22:23.293Z,2.88
2022-12-25T07:24:50.094Z,2.88
2022-12-25T07:27:17.261Z,2.83
2022-12-25T07:29:44.073Z,2.85
2022-12-25T07:32:10.924Z,2.88
2022-12-25T07:34:37.782Z,2.86
2022-12-25T07:37:04.878Z,2.87
2022-12-25T07:39:31.736Z,2.87
2022-12-25T07:41:58.510Z,2.87
2022-12-25T07:44:25.442Z,2.95
2022-12-25T07:46:52.589Z,2.95
2022-12-25T07:49:19.458Z,2.99
2022-12-25T07:51:46.268Z,2.99
2022-12-25T07:54:13.106Z,3.02
2022-12-25T07:56:39.929Z,3.09
2022-12-25T07:59:06.779Z,3.12
2022-12-25T08:01:33.826Z,3.20
2022-12-25T08:04:01.557Z,3.21
2022-12-25T08:06:32.639Z,3.25
2022-12-25T08:09:04.262Z,3.23
2022-12-25T08:11:31.113Z,3.27
2022-12-25T08:13:57.874Z,3.36
2022-12-25T08:16:25.014Z,3.41
2022-12-25T08:18:52.223Z,3.51
2022-12-25T08:21:19.015Z,3.59
2022-12-25T08:23:46.389Z,3.74
2022-12-25T08:26:14.720Z,3.79
2022-12-25T08:28:41.842Z,3.85
2022-12-25T08:31:10.325Z,3.84
2022-12-25T08:33:37.396Z,3.88
2022-12-25T08:36:05.251Z,3.82
2022-12-25T08:38:32.383Z,3.88
2022-12-25T08:40:59.232Z,3.86
2022-12-25T08:43:26.077Z,3.94
2022-12-25T08:45:52.948Z,3.97
2022-12-25T08:48:19.957Z,3.98
2022-12-25T08:50:47.655Z,4.01
2022-12-25T08:53:15.348Z,4.09
2022-12-25T08:55:42.135Z,4.14
2022-12-25T08:58:09.401Z,4.13
2022-12-25T09:00:36.419Z,4.01
2022-12-25T09:03:03.924Z,4.09
2022-12-25T09:05:31.632Z,4.07
2022-12-25T09:07:58.589Z,4.11
2022-12-25T09:10:25.404Z,4.10
2022-12-25T09:12:52.182Z,4.15
2022-12-25T09:15:21.397Z,4.21
2022-12-25T09:17:48.188Z,4.23
2022-12-25T09:20:15.342Z,4.31
2022-12-25T09:22:42.265Z,4.36
2022-12-25T09:25:09.335Z,4.40
2022-12-25T09:27:36.121Z,4.51
2022-12-25T09:30:03.966Z,4.51
2022-12-25T09:32:30.964Z,4.58
2022-12-25T09:34:57.859Z,4.70
2022-12-25T09:37:24.734Z,4.73
2022-12-25T09:39:51.666Z,4.80
2022-12-25T09:42:24.071Z,4.78
2022-12-25T09:44:56.390Z,4.93
2022-12-25T09:47:25.037Z,5.09
2022-12-25T09:49:55.170Z,5.19
2022-12-25T09:52:27.813Z,5.29
2022-12-25T09:54:57.723Z,5.29
2022-12-25T09:57:27.828Z,5.34
2022-12-25T09:59:56.310Z,5.31
2022-12-25T10:02:23.863Z,5.39
2022-12-25T10:05:09.963Z,5.29
2022-12-25T10:07:36.952Z,5.38
2022-12-25T10:10:19.714Z,5.46
2022-12-25T10:13:04.758Z,5.56
2022-12-25T10:15:40.417Z,5.65
2022-12-25T10:18:22.388Z,5.70
2022-12-25T10:20:54.094Z,5.79
2022-12-25T10:23:24.032Z,5.84
2022-12-25T10:25:52.442Z,5.84
2022-12-25T10:28:44.112Z,5.87
2022-12-25T10:31:20.600Z,5.87
2022-12-25T10:33:51.338Z,5.93
2022-12-25T10:36:19.578Z,6.01
2022-12-25T10:38:47.606Z,6.05
2022-12-25T10:41:19.407Z,6.05
2022-12-25T10:43:50.350Z,6.03
2022-12-25T10:46:18.347Z,6.11
2022-12-25T10:48:48.146Z,6.07
2022-12-25T10:51:25.570Z,6.09
2022-12-25T10:53:52.504Z,6.12
2022-12-25T10:56:19.652Z,6.15
2022-12-25T10:58:46.532Z,6.19
2022-12-25T11:01:13.771Z,6.22
2022-12-25T11:03:42.094Z,6.32
2022-12-25T11:06:21.755Z,6.22
2022-12-25T11:08:51.784Z,6.31
2022-12-25T11:11:19.593Z,6.43
2022-12-25T11:13:52.116Z,6.40
2022-12-25T11:16:37.861Z,6.49
2022-12-25T11:19:22.902Z,6.58
2022-12-25T11:21:50.984Z,6.64
2022-12-25T11:24:18.878Z,6.65
2022-12-25T11:26:50.038Z,6.68
2022-12-25T11:29:19.799Z,6.70
2022-12-25T11:31:47.488Z,6.63
2022-12-25T11:34:23.218Z,6.66
2022-12-25T11:36:51.353Z,6.69
2022-12-25T11:39:38.470Z,6.71
2022-12-25T11:42:11.379Z,6.68
2022-12-25T11:44:38.106Z,6.66
2022-12-25T11:47:13.276Z,6.69
2022-12-25T11:49:48.811Z,6.71
2022-12-25T11:52:17.788Z,6.70
2022-12-25T11:54:56.892Z,6.79
2022-12-25T11:57:25.915Z,6.77
2022-12-25T11:59:56.070Z,6.76
2022-12-25T12:02:30.544Z,6.74
2022-12-25T12:05:04.519Z,6.77
2022-12-25T12:07:32.601Z,6.77
2022-12-25T12:10:19.197Z,6.71
2022-12-25T12:12:54.934Z,6.77
2022-12-25T12:15:28.482Z,6.67
2022-12-25T12:17:55.876Z,6.61
2022-12-25T12:20:33.632Z,6.65
2022-12-25T12:23:01.748Z,6.58
2022-12-25T12:25:29.030Z,6.69
2022-12-25T12:28:02.855Z,6.74
2022-12-25T12:30:34.651Z,6.69
2022-12-25T12:33:06.051Z,6.78
2022-12-25T12:35:37.262Z,6.75
2022-12-25T12:38:07.624Z,6.66
2022-12-25T12:40:38.674Z,6.68
2022-12-25T12:43:06.802Z,6.61
2022-12-25T12:45:35.733Z,6.70
2022-12-25T12:48:13.766Z,6.66
2022-12-25T12:50:42.104Z,6.65
2022-12-25T12:53:27.001Z,6.73
2022-12-25T12:55:53.915Z,6.68
2022-12-25T12:58:31.225Z,6.76
2022-12-25T13:01:04.092Z,6.78
2022-12-25T13:03:49.874Z,6.71
2022-12-25T13:06:46.232Z,6.74
2022-12-25T13:09:16.117Z,6.64
2022-12-25T13:11:43.604Z,6.57
2022-12-25T13:14:20.374Z,6.58
2022-12-25T13:16:48.512Z,6.61
2022-12-25T13:19:18.371Z,6.63
2022-12-25T13:22:02.091Z,6.64
2022-12-25T13:24:32.862Z,6.61
2022-12-25T13:27:00.375Z,6.59
2022-12-25T13:29:31.491Z,6.59
2022-12-25T13:31:58.918Z,6.53
2022-12-25T13:34:34.225Z,6.50
2022-12-25T13:37:13.261Z,6.40
2022-12-25T13:39:47.105Z,6.45
2022-12-25T13:42:16.257Z,6.39
2022-12-25T13:44:51.235Z,6.44
2022-12-25T13:47:27.303Z,6.44
2022-12-25T13:49:56.022Z,6.50
2022-12-25T13:52:27.621Z,6.45
2022-12-25T13:55:14.375Z,6.44
2022-12-25T13:57:44.372Z,6.40
2022-12-25T14:00:19.554Z,6.39
2022-12-25T14:02:46.721Z,6.35
2022-12-25T14:05:24.586Z,6.39
2022-12-25T14:07:55.285Z,6.41
2022-12-25T14:10:22.943Z,6.41
2022-12-25T14:12:51.561Z,6.41
2022-12-25T14:15:20.642Z,6.48
2022-12-25T14:17:48.222Z,6.48
2022-12-25T14:20:27.308Z,6.50
2022-12-25T14:22:55.531Z,6.52
2022-12-25T14:25:24.386Z,6.52
2022-12-25T14:27:52.151Z,6.53
2022-12-25T14:30:19.561Z,6.52
2022-12-25T14:32:50.802Z,6.52
2022-12-25T14:35:23.114Z,6.50
2022-12-25T14:37:53.693Z,6.50
2022-12-25T14:40:28.622Z,6.51
2022-12-25T14:42:57.492Z,6.52
2022-12-25T14:45:28.819Z,6.52
2022-12-25T14:47:57.179Z,6.54
2022-12-25T14:50:44.261Z,6.58
2022-12-25T14:53:18.420Z,6.52
2022-12-25T14:55:52.827Z,6.56
2022-12-25T14:58:23.127Z,6.55
2022-12-25T15:01:00.215Z,6.59
2022-12-25T15:03:32.157Z,6.61
2022-12-25T15:06:03.591Z,6.60
2022-12-25T15:08:31.317Z,6.59
2022-12-25T15:11:01.135Z,6.61
2022-12-25T15:13:28.864Z,6.68
2022-12-25T15:16:02.206Z,6.73
2022-12-25T15:18:31.832Z,6.70
2022-12-25T15:20:58.971Z,6.67
2022-12-25T15:23:28.451Z,6.68
2022-12-25T15:25:55.575Z,6.65
2022-12-25T15:28:22.464Z,6.66
2022-12-25T15:30:50.055Z,6.62
2022-12-25T15:33:18.213Z,6.60
2022-12-25T15:35:45.066Z,6.63
2022-12-25T15:38:12.805Z,6.60
2022-12-25T15:40:40.213Z,6.65
2022-12-25T15:43:14.454Z,6.62
2022-12-25T15:45:49.652Z,6.64
2022-12-25T15:48:16.498Z,6.63
2022-12-25T15:50:44.349Z,6.60
2022-12-25T15:53:11.180Z,6.61
2022-12-25T15:55:38.731Z,6.58
2022-12-25T15:58:05.528Z,6.63
2022-12-25T16:00:32.428Z,6.61
2022-12-25T16:02:59.666Z,6.49
2022-12-25T16:05:26.802Z,6.47
2022-12-25T16:07:53.604Z,6.48
2022-12-25T16:10:20.483Z,6.53
2022-12-25T16:12:47.677Z,6.57
2022-12-25T16:15:15.031Z,6.57
2022-12-25T16:17:41.938Z,6.64
2022-12-25T16:20:09.131Z,6.65
2022-12-25T16:22:39.962Z,6.60
2022-12-25T16:25:17.961Z,6.64
2022-12-25T16:27:45.412Z,6.65
2022-12-25T16:30:14.005Z,6.60
2022-12-25T16:32:42.152Z,6.54
2022-12-25T16:35:09.885Z,6.60
2022-12-25T16:37:37.121Z,6.60
2022-12-25T16:40:04.837Z,6.54
2022-12-25T16:42:31.761Z,6.53
2022-12-25T16:44:58.885Z,6.62
2022-12-25T16:47:25.829Z,6.61
2022-12-25T16:49:52.761Z,6.60
2022-12-25T16:52:19.747Z,6.61
2022-12-25T16:54:46.631Z,6.64
2022-12-25T16:57:14.065Z,6.62
2022-12-25T16:59:41.567Z,6.63
2022-12-25T17:02:10.083Z,6.58
2022-12-25T17:04:37.327Z,6.60
2022-12-25T17:07:04.514Z,6.58
2022-12-25T17:09:31.716Z,6.57
2022-12-25T17:11:58.641Z,6.63
2022-12-25T17:14:25.515Z,6.66
2022-12-25T17:16:52.492Z,6.65
2022-12-25T17:19:20.573Z,6.63
2022-12-25T17:21:47.441Z,6.62
2022-12-25T17:24:14.649Z,6.64
2022-12-25T17:26:41.655Z,6.67
2022-12-25T17:29:08.829Z,6.67
2022-12-25T17:31:36.115Z,6.66
2022-12-25T17:34:03.606Z,6.71
2022-12-25T17:36:30.926Z,6.71
2022-12-25T17:39:01.370Z,6.68
2022-12-25T17:41:28.269Z,6.72
2022-12-25T17:43:55.092Z,6.75
2022-12-25T17:46:24.254Z,6.80
2022-12-25T17:48:52.599Z,6.79
2022-12-25T17:51:21.275Z,6.79
2022-12-25T17:53:49.611Z,6.80
2022-12-25T17:56:17.999Z,6.83
2022-12-25T17:58:45.319Z,6.82
2022-12-25T18:01:14.312Z,6.85
2022-12-25T18:03:41.801Z,6.81
2022-12-25T18:06:10.228Z,6.79
2022-12-25T18:08:39.486Z,6.85
2022-12-25T18:11:08.901Z,6.83
2022-12-25T18:13:36.016Z,6.87
2022-12-25T18:16:06.614Z,6.89
2022-12-25T18:18:33.944Z,6.87
2022-12-25T18:21:01.975Z,6.85
2022-12-25T18:23:29.049Z,6.88
2022-12-25T18:25:56.025Z,6.91
2022-12-25T18:28:22.847Z,6.88
2022-12-25T18:30:49.722Z,6.89
2022-12-25T18:33:16.571Z,6.92
2022-12-25T18:35:43.800Z,6.85
2022-12-25T18:38:11.450Z,6.90
2022-12-25T18:40:45.259Z,6.90
2022-12-25T18:43:12.736Z,6.85
2022-12-25T18:45:39.768Z,6.86
2022-12-25T18:48:07.360Z,6.87
2022-12-25T18:50:34.876Z,6.90
2022-12-25T18:53:02.117Z,6.94
2022-12-25T18:55:29.066Z,6.96
2022-12-25T18:57:56.324Z,7.01
2022-12-25T19:00:23.284Z,7.05
2022-12-25T19:02:50.733Z,7.04
2022-12-25T19:05:17.754Z,6.99
2022-12-25T19:07:44.830Z,6.96
2022-12-25T19:10:11.733Z,6.99
2022-12-25T19:12:38.649Z,6.98
2022-12-25T19:15:06.021Z,7.03
2022-12-25T19:17:34.250Z,6.99
2022-12-25T19:20:01.163Z,7.03
2022-12-25T19:22:28.005Z,7.02
2022-12-25T19:24:54.802Z,6.98
2022-12-25T19:27:21.734Z,7.02
2022-12-25T19:29:48.678Z,7.03
2022-12-25T19:32:15.459Z,7.05
2022-12-25T19:34:42.232Z,7.05
2022-12-25T19:37:09.180Z,7.12
2022-12-25T19:39:36.033Z,7.14
2022-12-25T19:42:02.876Z,7.21
2022-12-25T19:44:29.681Z,7.17
2022-12-25T19:46:56.653Z,7.21
2022-12-25T19:49:23.439Z,7.23
2022-12-25T19:51:50.302Z,7.19
2022-12-25T19:54:18.893Z,7.25
2022-12-25T19:56:46.272Z,7.23
2022-12-25T19:59:14.561Z,7.28
2022-12-25T20:01:42.185Z,7.31
2022-12-25T20:04:09.700Z,7.31
2022-12-25T20:06:38.477Z,7.31
2022-12-25T20:09:06.605Z,7.31
2022-12-25T20:11:34.234Z,7.30
2022-12-25T20:14:01.367Z,7.30
2022-12-25T20:16:28.452Z,7.27
2022-12-25T20:18:56.593Z,7.34
2022-12-25T20:21:23.501Z,7.35
2022-12-25T20:23:51.620Z,7.39
2022-12-25T20:26:19.754Z,7.39
2022-12-25T20:28:47.225Z,7.45
2022-12-25T20:31:18.337Z,7.40
2022-12-25T20:33:45.336Z,7.42
2022-12-25T20:36:13.180Z,7.40
2022-12-25T20:38:40.572Z,7.42
2022-12-25T20:41:29.201Z,7.40
2022-12-25T20:43:56.958Z,7.42
2022-12-25T20:46:24.629Z,7.46
2022-12-25T20:48:52.789Z,7.44
2022-12-25T20:51:21.810Z,7.47
2022-12-25T20:53:49.058Z,7.44
2022-12-25T20:56:16.781Z,7.49
2022-12-25T20:58:43.698Z,7.53
2022-12-25T21:01:15.471Z,7.50
2022-12-25T21:03:42.534Z,7.49
2022-12-25T21:06:09.579Z,7.44
2022-12-25T21:08:36.868Z,7.50
2022-12-25T21:11:04.733Z,7.52
2022-12-25T21:13:33.084Z,7.58
2022-12-25T21:15:59.982Z,7.52
2022-12-25T21:18:27.924Z,7.56
2022-12-25T21:20:55.781Z,7.53
2022-12-25T21:23:23.030Z,7.60
2022-12-25T21:25:49.926Z,7.61
2022-12-25T21:28:16.907Z,7.53
2022-12-25T21:30:43.802Z,7.58
2022-12-25T21:33:32.442Z,7.62
2022-12-25T21:36:09.236Z,7.59
2022-12-25T21:38:36.441Z,7.61
2022-12-25T21:41:07.703Z,7.65
2022-12-25T21:43:35.556Z,7.60
2022-12-25T21:46:06.899Z,7.61
2022-12-25T21:48:34.835Z,7.64
2022-12-25T21:51:24.289Z,7.58
2022-12-25T21:53:51.504Z,7.66
2022-12-25T21:56:18.747Z,7.61
2022-12-25T21:58:45.686Z,7.62
2022-12-25T22:01:16.968Z,7.63
2022-12-25T22:03:44.480Z,7.60
2022-12-25T22:06:30.380Z,7.65
2022-12-25T22:08:57.439Z,7.64
2022-12-25T22:11:45.114Z,7.65
2022-12-25T22:14:53.019Z,7.64
2022-12-25T22:17:41.354Z,7.57
2022-12-25T22:20:09.449Z,7.59
2022-12-25T22:22:36.451Z,7.53
2022-12-25T22:25:04.476Z,7.58
2022-12-25T22:27:34.942Z,7.58
2022-12-25T22:30:02.179Z,7.63
2022-12-25T22:32:29.045Z,7.57
2022-12-25T22:34:56.156Z,7.58
2022-12-25T22:37:23.571Z,7.48
2022-12-25T22:39:50.394Z,7.56
2022-12-25T22:42:17.684Z,7.51
2022-12-25T22:44:45.543Z,7.49
2022-12-25T22:47:12.464Z,7.51
2022-12-25T22:49:39.625Z,7.49
2022-12-25T22:52:08.096Z,7.44
2022-12-25T22:54:36.126Z,7.49
2022-12-25T22:57:03.038Z,7.40
2022-12-25T22:59:29.881Z,7.40
2022-12-25T23:01:56.775Z,7.48
2022-12-25T23:04:24.249Z,7.52
2022-12-25T23:06:51.459Z,7.49
2022-12-25T23:09:24.344Z,7.44
2022-12-25T23:11:51.807Z,7.44
2022-12-25T23:14:37.289Z,7.41
2022-12-25T23:17:04.371Z,7.50
2022-12-25T23:19:50.110Z,7.51
2022-12-25T23:22:35.368Z,7.49
2022-12-25T23:25:20.862Z,7.45
2022-12-25T23:27:47.639Z,7.45
2022-12-25T23:30:15.563Z,7.46
2022-12-25T23:32:43.288Z,7.47
2022-12-25T23:35:10.840Z,7.44
2022-12-25T23:37:37.894Z,7.46
2022-12-25T23:40:05.127Z,7.43
2022-12-25T23:42:32.260Z,7.41
2022-12-25T23:44:59.033Z,7.45
2022-12-25T23:47:25.834Z,7.48
2022-12-25T23:49:52.610Z,7.44
2022-12-25T23:52:19.475Z,7.42
2022-12-25T23:54:46.404Z,7.43
2022-12-25T23:57:13.164Z,7.40
2022-12-25T23:59:40.003Z,7.36
